createdAt,value
2023-10-07T00:01:27.407Z,28.30
2023-10-07T00:03:55.166Z,31.90
2023-10-07T00:06:28.484Z,26.77
2023-10-07T00:08:55.579Z,29.43
2023-10-07T00:11:23.376Z,27.00
2023-10-07T00:13:55.676Z,32.23
2023-10-07T00:16:25.321Z,31.53
2023-10-07T00:18:52.818Z,29.13
2023-10-07T00:21:28.348Z,26.93
2023-10-07T00:23:55.925Z,27.30
2023-10-07T00:26:22.802Z,28.00
2023-10-07T00:29:02.856Z,36.13
2023-10-07T00:31:34.436Z,29.73
2023-10-07T00:34:17.923Z,27.40
2023-10-07T00:36:45.679Z,30.97
2023-10-07T00:39:21.497Z,29.27
2023-10-07T00:41:51.911Z,28.30
2023-10-07T00:44:22.258Z,30.93
2023-10-07T00:46:56.718Z,37.87
2023-10-07T00:49:24.518Z,32.30
2023-10-07T00:51:53.455Z,27.73
2023-10-07T00:54:30.037Z,28.83
2023-10-07T00:57:12.216Z,29.83
2023-10-07T00:59:44.964Z,32.70
2023-10-07T01:02:31.309Z,33.20
2023-10-07T01:05:11.253Z,26.33
2023-10-07T01:07:38.227Z,29.77
2023-10-07T01:13:52.778Z,30.20
2023-10-07T01:16:29.440Z,28.00
2023-10-07T01:19:25.742Z,29.03
2023-10-07T01:21:57.267Z,28.40
2023-10-07T01:24:45.908Z,28.40
2023-10-07T01:27:26.712Z,32.13
2023-10-07T01:30:12.987Z,30.50
2023-10-07T01:32:49.714Z,31.27
2023-10-07T01:35:26.302Z,29.93
2023-10-07T01:38:08.563Z,28.40
2023-10-07T01:40:54.140Z,34.87
2023-10-07T01:43:21.684Z,28.73
2023-10-07T01:45:50.232Z,28.93
2023-10-07T01:48:18.790Z,28.40
2023-10-07T01:50:47.825Z,27.70
2023-10-07T01:53:17.955Z,29.60
2023-10-07T01:55:45.131Z,31.10
2023-10-07T01:58:16.254Z,27.67
2023-10-07T02:00:47.118Z,30.00
2023-10-07T02:03:15.477Z,29.57
2023-10-07T02:05:48.129Z,31.13
2023-10-07T02:08:19.040Z,30.83
2023-10-07T02:10:47.794Z,30.40
2023-10-07T02:13:19.905Z,28.20
2023-10-07T02:15:51.171Z,33.77
2023-10-07T02:18:18.260Z,31.47
2023-10-07T02:20:46.179Z,33.37
2023-10-07T02:23:14.126Z,30.93
2023-10-07T02:25:42.013Z,32.53
2023-10-07T02:28:09.866Z,31.27
2023-10-07T02:30:46.633Z,29.83
2023-10-07T02:33:15.171Z,31.50
2023-10-07T02:35:47.386Z,31.63
2023-10-07T02:38:14.316Z,30.90
2023-10-07T02:41:00.318Z,32.83
2023-10-07T02:43:28.620Z,32.97
2023-10-07T02:46:00.469Z,32.73
2023-10-07T02:48:27.233Z,29.03
2023-10-07T02:50:54.189Z,30.67
2023-10-07T02:53:21.017Z,29.00
2023-10-07T02:56:00.154Z,32.53
2023-10-07T02:58:49.822Z,29.47
2023-10-07T03:01:20.289Z,29.77
2023-10-07T03:03:50.354Z,36.40
2023-10-07T03:06:20.480Z,29.10
2023-10-07T03:08:47.420Z,29.67
2023-10-07T03:11:22.358Z,30.10
2023-10-07T03:13:51.759Z,27.70
2023-10-07T03:16:19.948Z,31.40
2023-10-07T03:18:49.946Z,32.60
2023-10-07T03:21:18.411Z,30.43
2023-10-07T03:23:59.366Z,29.83
2023-10-07T03:26:26.165Z,31.30
2023-10-07T03:28:54.303Z,27.80
2023-10-07T03:31:22.372Z,33.83
2023-10-07T03:33:53.435Z,39.43
2023-10-07T03:36:23.814Z,31.93
2023-10-07T03:39:10.334Z,38.80
2023-10-07T03:41:38.188Z,32.37
2023-10-07T03:44:05.269Z,29.60
2023-10-07T03:46:32.222Z,26.67
2023-10-07T03:48:59.120Z,33.93
2023-10-07T03:51:31.734Z,30.10
2023-10-07T03:54:11.303Z,32.40
2023-10-07T03:56:39.042Z,32.63
2023-10-07T03:59:06.906Z,30.30
2023-10-07T04:01:34.861Z,29.70
2023-10-07T04:04:01.934Z,30.60
2023-10-07T04:06:32.087Z,30.00
2023-10-07T04:09:08.859Z,33.90
2023-10-07T04:11:40.530Z,28.57
2023-10-07T04:14:21.225Z,34.23
2023-10-07T04:16:51.842Z,30.97
2023-10-07T04:19:19.619Z,30.63
2023-10-07T04:21:47.161Z,30.87
2023-10-07T04:24:14.241Z,32.73
2023-10-07T04:26:44.483Z,28.27
2023-10-07T04:29:23.132Z,31.23
2023-10-07T04:31:54.285Z,28.83
2023-10-07T04:34:22.436Z,29.33
2023-10-07T04:37:10.518Z,32.23
2023-10-07T04:39:40.678Z,32.00
2023-10-07T04:42:21.323Z,36.20
2023-10-07T04:44:54.274Z,31.27
2023-10-07T04:47:24.127Z,32.40
2023-10-07T04:50:01.542Z,34.47
2023-10-07T04:52:31.639Z,27.57
2023-10-07T04:54:59.980Z,30.47
2023-10-07T04:57:48.976Z,27.53
2023-10-07T05:00:32.551Z,30.17
2023-10-07T05:03:15.820Z,31.53
2023-10-07T05:05:46.602Z,28.90
2023-10-07T05:08:18.150Z,28.10
2023-10-07T05:10:53.906Z,30.67
2023-10-07T05:13:22.767Z,30.13
2023-10-07T05:15:49.913Z,31.10
2023-10-07T05:18:18.419Z,30.40
2023-10-07T05:20:49.034Z,34.13
2023-10-07T05:23:16.099Z,29.47
2023-10-07T05:25:50.631Z,27.77
2023-10-07T05:28:23.568Z,37.90
2023-10-07T05:30:52.499Z,27.40
2023-10-07T05:33:27.314Z,32.07
2023-10-07T05:36:13.228Z,29.87
2023-10-07T05:38:45.511Z,30.70
2023-10-07T05:41:16.886Z,32.10
2023-10-07T05:43:49.969Z,29.20
2023-10-07T05:46:20.525Z,32.43
2023-10-07T05:48:52.429Z,29.43
2023-10-07T05:51:19.266Z,32.50
2023-10-07T05:53:50.395Z,28.40
2023-10-07T05:56:17.389Z,29.63
2023-10-07T05:58:49.292Z,33.63
2023-10-07T06:01:18.278Z,28.50
2023-10-07T06:03:45.527Z,27.53
2023-10-07T06:06:12.492Z,34.60
2023-10-07T06:08:39.408Z,32.70
2023-10-07T06:11:06.396Z,29.47
2023-10-07T06:13:34.610Z,40.37
2023-10-07T06:16:05.989Z,30.17
2023-10-07T06:18:35.077Z,31.40
2023-10-07T06:21:21.898Z,33.93
2023-10-07T06:23:49.918Z,31.33
2023-10-07T06:26:16.980Z,31.77
2023-10-07T06:28:50.077Z,28.50
2023-10-07T06:31:29.318Z,35.00
2023-10-07T06:34:04.381Z,36.30
2023-10-07T06:36:32.906Z,31.97
2023-10-07T06:39:02.518Z,33.93
2023-10-07T06:41:34.891Z,31.77
2023-10-07T06:44:05.145Z,35.57
2023-10-07T06:46:47.136Z,32.07
2023-10-07T06:49:22.612Z,32.40
2023-10-07T06:51:59.973Z,36.17
2023-10-07T06:54:33.456Z,37.37
2023-10-07T06:57:02.751Z,36.37
2023-10-07T06:59:30.036Z,39.20
2023-10-07T07:01:58.851Z,37.20
2023-10-07T07:04:27.029Z,38.03
2023-10-07T07:07:11.579Z,38.50
2023-10-07T07:09:48.622Z,36.70
2023-10-07T07:12:23.116Z,35.50
2023-10-07T07:15:06.822Z,40.80
2023-10-07T07:17:37.190Z,41.10
2023-10-07T07:20:08.903Z,34.90
2023-10-07T07:22:46.541Z,35.60
2023-10-07T07:25:27.891Z,40.83
2023-10-07T07:27:55.012Z,33.30
2023-10-07T07:30:32.054Z,33.00
2023-10-07T07:33:01.356Z,35.50
2023-10-07T07:35:41.560Z,37.87
2023-10-07T07:38:28.100Z,33.03
2023-10-07T07:41:27.211Z,31.10
2023-10-07T07:43:59.691Z,32.57
2023-10-07T07:46:30.258Z,29.30
2023-10-07T07:49:08.072Z,30.53
2023-10-07T07:51:38.925Z,58.37
2023-10-07T07:54:09.761Z,58.87
2023-10-07T07:56:37.574Z,42.27
2023-10-07T07:59:14.915Z,33.17
2023-10-07T08:01:46.417Z,28.03
2023-10-07T08:04:36.064Z,31.33
2023-10-07T08:07:07.406Z,34.07
2023-10-07T08:09:38.329Z,27.07
2023-10-07T08:12:10.840Z,31.40
2023-10-07T08:14:42.158Z,30.97
2023-10-07T08:17:09.684Z,28.20
2023-10-07T08:19:36.718Z,29.60
2023-10-07T08:22:06.167Z,31.80
2023-10-07T08:24:36.640Z,28.90
2023-10-07T08:27:04.851Z,28.70
2023-10-07T08:29:35.384Z,28.47
2023-10-07T08:32:18.757Z,29.87
2023-10-07T08:34:48.864Z,27.57
2023-10-07T08:37:17.324Z,31.90
2023-10-07T08:39:47.860Z,32.33
2023-10-07T08:42:19.503Z,27.77
2023-10-07T08:44:54.277Z,33.20
2023-10-07T08:47:22.421Z,33.03
2023-10-07T08:49:53.342Z,30.40
2023-10-07T08:52:21.214Z,31.57
2023-10-07T08:54:48.370Z,31.40
2023-10-07T08:57:23.529Z,30.27
2023-10-07T08:59:53.281Z,28.40
2023-10-07T09:02:28.844Z,31.50
2023-10-07T09:04:57.753Z,27.47
2023-10-07T09:07:32.078Z,30.23
2023-10-07T09:10:09.160Z,30.23
2023-10-07T09:12:46.930Z,28.80
2023-10-07T09:15:22.515Z,34.30
2023-10-07T09:17:49.615Z,34.90
2023-10-07T09:20:30.701Z,29.87
2023-10-07T09:23:02.614Z,29.17
2023-10-07T09:25:32.869Z,29.63
2023-10-07T09:28:02.425Z,30.20
2023-10-07T09:30:40.070Z,32.73
2023-10-07T09:33:15.155Z,30.80
2023-10-07T09:35:44.700Z,29.67
2023-10-07T09:38:33.798Z,31.87
2023-10-07T09:41:13.982Z,32.37
2023-10-07T09:43:57.466Z,31.13
2023-10-07T09:46:38.228Z,30.90
2023-10-07T09:49:07.210Z,32.43
2023-10-07T09:51:45.594Z,32.93
2023-10-07T09:54:17.651Z,34.30
2023-10-07T09:57:22.211Z,36.47
2023-10-07T10:00:27.140Z,32.50
2023-10-07T10:03:29.805Z,36.27
2023-10-07T10:06:17.626Z,37.60
2023-10-07T10:09:10.169Z,36.00
2023-10-07T10:11:40.676Z,36.07
2023-10-07T10:14:14.426Z,33.87
2023-10-07T10:16:56.048Z,33.80
2023-10-07T10:19:45.715Z,36.50
2023-10-07T10:22:14.131Z,34.40
2023-10-07T10:24:45.753Z,37.27
2023-10-07T10:27:14.316Z,39.60
2023-10-07T10:29:56.551Z,36.63
2023-10-07T10:32:30.215Z,35.17
2023-10-07T10:35:03.531Z,36.53
2023-10-07T10:37:34.072Z,39.67
2023-10-07T10:40:13.724Z,36.07
2023-10-07T10:42:42.687Z,34.57
2023-10-07T10:45:20.672Z,32.47
2023-10-07T10:47:48.694Z,35.53
2023-10-07T10:50:18.383Z,35.40
2023-10-07T10:52:49.767Z,35.23
2023-10-07T10:55:20.916Z,38.20
2023-10-07T10:57:48.376Z,36.73
2023-10-07T11:00:22.780Z,43.60
2023-10-07T11:02:56.804Z,42.10
2023-10-07T11:05:24.273Z,39.50
2023-10-07T11:07:52.257Z,44.27
2023-10-07T11:10:26.146Z,42.43
2023-10-07T11:12:54.498Z,44.53
2023-10-07T11:15:26.195Z,45.23
2023-10-07T11:18:14.273Z,44.20
2023-10-07T11:20:42.258Z,39.73
2023-10-07T11:23:10.037Z,37.53
2023-10-07T11:25:37.492Z,38.20
2023-10-07T11:28:10.606Z,43.27
2023-10-07T11:30:49.307Z,39.07
2023-10-07T11:33:19.417Z,39.53
2023-10-07T11:36:07.383Z,35.70
2023-10-07T11:38:34.586Z,34.40
2023-10-07T11:41:01.629Z,35.07
2023-10-07T11:43:31.358Z,40.90
2023-10-07T11:46:00.267Z,36.33
2023-10-07T11:48:27.191Z,33.90
2023-10-07T11:50:55.827Z,38.20
2023-10-07T11:53:22.720Z,35.70
2023-10-07T11:55:49.715Z,34.70
2023-10-07T11:58:19.143Z,37.33
2023-10-07T12:00:46.225Z,35.20
2023-10-07T12:03:14.177Z,38.07
2023-10-07T12:05:43.969Z,34.17
2023-10-07T12:08:14.501Z,37.10
2023-10-07T12:10:41.421Z,33.20
2023-10-07T12:13:08.622Z,41.70
2023-10-07T12:15:39.186Z,39.33
2023-10-07T12:18:08.485Z,42.23
2023-10-07T12:20:35.792Z,47.40
2023-10-07T12:23:03.598Z,37.40
2023-10-07T12:25:32.217Z,39.70
2023-10-07T12:27:59.001Z,44.53
2023-10-07T12:30:27.844Z,41.33
2023-10-07T12:32:54.920Z,37.37
2023-10-07T12:35:22.899Z,40.00
2023-10-07T12:37:50.101Z,37.87
2023-10-07T12:40:21.663Z,43.27
2023-10-07T12:42:53.474Z,34.40
2023-10-07T12:45:20.879Z,35.83
2023-10-07T12:47:52.644Z,35.53
2023-10-07T12:50:34.046Z,35.50
2023-10-07T12:53:05.811Z,34.33
2023-10-07T12:55:33.729Z,36.57
2023-10-07T12:58:06.987Z,38.80
2023-10-07T13:00:35.352Z,43.73
2023-10-07T13:03:06.324Z,35.13
2023-10-07T13:05:38.751Z,36.80
2023-10-07T13:08:16.924Z,35.60
2023-10-07T13:10:44.691Z,34.27
2023-10-07T13:13:15.465Z,36.60
2023-10-07T13:15:43.731Z,36.60
2023-10-07T13:18:11.355Z,37.13
2023-10-07T13:20:40.306Z,36.80
2023-10-07T13:23:07.703Z,36.07
2023-10-07T13:25:35.728Z,36.73
2023-10-07T13:28:05.771Z,35.60
2023-10-07T13:30:36.411Z,41.40
2023-10-07T13:33:06.372Z,36.40
2023-10-07T13:35:34.370Z,43.20
2023-10-07T13:38:02.403Z,40.37
2023-10-07T13:40:31.447Z,34.17
2023-10-07T13:42:58.563Z,31.53
2023-10-07T13:45:29.705Z,32.70
2023-10-07T13:47:57.217Z,34.27
2023-10-07T13:50:29.535Z,34.27
2023-10-07T13:53:13.619Z,35.03
2023-10-07T13:55:45.173Z,34.57
2023-10-07T13:58:15.858Z,32.87
2023-10-07T14:00:46.974Z,37.20
2023-10-07T14:03:22.216Z,34.33
2023-10-07T14:05:56.606Z,35.40
2023-10-07T14:08:30.452Z,33.67
2023-10-07T14:11:00.517Z,35.33
2023-10-07T14:13:33.278Z,37.00
2023-10-07T14:16:14.126Z,32.83
2023-10-07T14:18:46.850Z,34.97
2023-10-07T14:21:13.949Z,33.60
2023-10-07T14:23:40.963Z,33.37
2023-10-07T14:26:15.044Z,33.80
2023-10-07T14:28:45.506Z,35.00
2023-10-07T14:31:18.779Z,33.10
2023-10-07T14:33:47.569Z,36.73
2023-10-07T14:36:14.867Z,33.10
2023-10-07T14:38:43.582Z,35.67
2023-10-07T14:41:12.308Z,33.90
2023-10-07T14:43:39.345Z,31.43
2023-10-07T14:46:12.682Z,32.73
2023-10-07T14:48:47.138Z,36.77
2023-10-07T14:51:14.976Z,32.37
2023-10-07T14:53:41.814Z,34.37
2023-10-07T14:56:17.570Z,32.40
2023-10-07T14:58:48.760Z,37.23
2023-10-07T15:01:17.183Z,35.37
2023-10-07T15:03:45.444Z,37.80
2023-10-07T15:06:18.257Z,36.90
2023-10-07T15:08:45.901Z,34.27
2023-10-07T15:11:20.563Z,32.80
2023-10-07T15:13:50.679Z,36.10
2023-10-07T15:16:17.953Z,34.30
2023-10-07T15:18:51.328Z,31.83
2023-10-07T15:21:19.021Z,35.60
2023-10-07T15:23:47.221Z,34.97
2023-10-07T15:26:18.306Z,35.60
2023-10-07T15:28:46.873Z,44.30
2023-10-07T15:31:24.667Z,38.53
2023-10-07T15:33:54.439Z,37.03
2023-10-07T15:36:21.749Z,36.90
2023-10-07T15:38:50.292Z,30.90
2023-10-07T15:41:18.093Z,35.93
2023-10-07T15:43:45.100Z,32.67
2023-10-07T15:46:11.942Z,29.97
2023-10-07T15:48:38.881Z,29.47
2023-10-07T15:51:08.456Z,29.57
2023-10-07T15:53:36.075Z,28.80
2023-10-07T15:56:07.632Z,29.60
2023-10-07T15:58:45.823Z,28.50
2023-10-07T16:01:13.887Z,29.87
2023-10-07T16:03:42.988Z,29.00
2023-10-07T16:06:10.337Z,30.73
2023-10-07T16:08:38.702Z,28.30
2023-10-07T16:11:15.681Z,27.47
2023-10-07T16:13:42.496Z,27.17
2023-10-07T16:16:10.156Z,28.60
2023-10-07T16:18:43.188Z,28.13
2023-10-07T16:21:13.528Z,27.93
2023-10-07T16:23:41.395Z,28.93
2023-10-07T16:26:09.287Z,27.90
2023-10-07T16:28:40.984Z,27.40
2023-10-07T16:31:08.568Z,27.70
2023-10-07T16:33:35.365Z,27.90
2023-10-07T16:36:05.342Z,26.63
2023-10-07T16:38:35.311Z,28.97
2023-10-07T16:41:08.334Z,28.40
2023-10-07T16:43:36.472Z,26.53
2023-10-07T16:46:06.580Z,27.50
2023-10-07T16:48:35.560Z,27.67
2023-10-07T16:51:07.528Z,28.83
2023-10-07T16:53:36.235Z,27.70
2023-10-07T16:56:09.088Z,28.30
2023-10-07T16:58:36.972Z,28.57
2023-10-07T17:01:06.869Z,27.07
2023-10-07T17:03:34.172Z,26.27
2023-10-07T17:06:05.017Z,27.27
2023-10-07T17:08:34.229Z,27.30
2023-10-07T17:11:01.743Z,27.43
2023-10-07T17:13:29.077Z,26.13
2023-10-07T17:15:57.339Z,27.30
2023-10-07T17:18:27.176Z,26.30
2023-10-07T17:20:55.202Z,27.83
2023-10-07T17:23:23.164Z,28.80
2023-10-07T17:25:50.180Z,27.00
2023-10-07T17:28:17.325Z,27.80
2023-10-07T17:30:49.076Z,28.10
2023-10-07T17:33:17.044Z,27.27
2023-10-07T17:35:46.405Z,26.23
2023-10-07T17:38:14.368Z,27.07
2023-10-07T17:40:41.581Z,26.90
2023-10-07T17:43:10.660Z,26.60
2023-10-07T17:45:38.812Z,28.73
2023-10-07T17:48:07.511Z,27.57
2023-10-07T17:50:35.724Z,29.13
2023-10-07T17:53:03.963Z,28.17
2023-10-07T17:55:31.991Z,28.33
2023-10-07T17:57:59.514Z,27.83
2023-10-07T18:00:30.413Z,29.87
2023-10-07T18:02:58.734Z,28.30
2023-10-07T18:05:28.344Z,29.20
2023-10-07T18:07:55.760Z,28.27
2023-10-07T18:10:24.919Z,28.17
2023-10-07T18:12:52.534Z,26.93
2023-10-07T18:15:19.974Z,26.67
2023-10-07T18:17:47.895Z,25.87
2023-10-07T18:20:16.017Z,28.87
2023-10-07T18:22:46.592Z,26.07
2023-10-07T18:25:13.906Z,33.43
2023-10-07T18:27:40.903Z,26.30
2023-10-07T18:30:08.837Z,28.63
2023-10-07T18:32:39.647Z,27.40
2023-10-07T18:35:09.107Z,27.40
2023-10-07T18:37:36.694Z,28.33
2023-10-07T18:40:04.164Z,28.53
2023-10-07T18:42:32.192Z,28.57
2023-10-07T18:44:59.741Z,26.57
2023-10-07T18:47:27.930Z,28.97
2023-10-07T18:49:54.947Z,28.87
2023-10-07T18:52:23.536Z,27.40
2023-10-07T18:54:51.087Z,28.27
2023-10-07T18:57:18.295Z,28.07
2023-10-07T18:59:48.250Z,29.30
2023-10-07T19:02:15.839Z,29.27
2023-10-07T19:04:43.060Z,28.70
2023-10-07T19:07:09.875Z,29.97
2023-10-07T19:09:37.972Z,30.13
2023-10-07T19:12:06.168Z,30.10
2023-10-07T19:14:33.487Z,29.97
2023-10-07T19:17:01.165Z,29.73
2023-10-07T19:19:28.205Z,31.63
2023-10-07T19:21:55.418Z,29.77
2023-10-07T19:24:24.501Z,30.10
2023-10-07T19:26:51.837Z,29.40
2023-10-07T19:29:19.111Z,29.00
2023-10-07T19:31:46.123Z,30.13
2023-10-07T19:34:13.223Z,30.23
2023-10-07T19:36:40.149Z,29.60
2023-10-07T19:39:06.994Z,28.77
2023-10-07T19:41:33.918Z,29.90
2023-10-07T19:44:00.984Z,28.37
2023-10-07T19:46:27.990Z,27.17
2023-10-07T19:48:55.035Z,27.80
2023-10-07T19:51:21.889Z,27.37
2023-10-07T19:53:51.775Z,27.00
2023-10-07T19:56:18.632Z,27.87
2023-10-07T19:58:45.502Z,30.00
2023-10-07T20:01:12.333Z,30.50
2023-10-07T20:03:39.573Z,26.23
2023-10-07T20:06:11.026Z,28.27
2023-10-07T20:08:40.808Z,25.27
2023-10-07T20:11:07.942Z,25.47
2023-10-07T20:13:35.443Z,25.17
2023-10-07T20:16:03.736Z,24.70
2023-10-07T20:18:30.709Z,24.37
2023-10-07T20:21:01.044Z,25.20
2023-10-07T20:23:28.198Z,25.50
2023-10-07T20:26:09.413Z,24.90
2023-10-07T20:28:39.509Z,24.87
2023-10-07T20:31:07.763Z,27.80
2023-10-07T20:33:35.250Z,27.17
2023-10-07T20:36:02.343Z,25.77
2023-10-07T20:38:29.298Z,26.40
2023-10-07T20:41:06.220Z,28.17
2023-10-07T20:43:33.452Z,24.77
2023-10-07T20:46:05.386Z,25.60
2023-10-07T20:48:33.162Z,25.47
2023-10-07T20:51:07.464Z,24.93
2023-10-07T20:53:39.976Z,24.70
2023-10-07T20:56:08.997Z,24.30
2023-10-07T20:58:36.539Z,22.80
2023-10-07T21:01:07.085Z,24.90
2023-10-07T21:03:34.131Z,23.03
2023-10-07T21:06:03.502Z,25.10
2023-10-07T21:08:31.559Z,24.03
2023-10-07T21:10:58.571Z,25.10
2023-10-07T21:13:25.356Z,25.80
2023-10-07T21:15:54.495Z,24.70
2023-10-07T21:18:21.316Z,25.10
2023-10-07T21:20:48.842Z,24.40
2023-10-07T21:23:15.770Z,23.77
2023-10-07T21:25:44.803Z,24.30
2023-10-07T21:28:12.194Z,24.07
2023-10-07T21:30:43.345Z,24.13
2023-10-07T21:33:12.081Z,23.67
2023-10-07T21:35:41.116Z,23.50
2023-10-07T21:38:09.304Z,23.80
2023-10-07T21:40:39.573Z,24.27
2023-10-07T21:43:10.579Z,24.87
2023-10-07T21:45:38.727Z,23.90
2023-10-07T21:48:10.546Z,23.07
2023-10-07T21:50:40.608Z,22.67
2023-10-07T21:53:08.032Z,22.83
2023-10-07T21:55:37.000Z,22.40
2023-10-07T21:58:05.767Z,23.33
2023-10-07T22:00:38.610Z,23.50
2023-10-07T22:03:07.841Z,22.90
2023-10-07T22:05:36.005Z,23.50
2023-10-07T22:08:03.319Z,25.63
2023-10-07T22:10:34.696Z,22.93
2023-10-07T22:13:02.298Z,24.07
2023-10-07T22:15:29.214Z,25.57
2023-10-07T22:17:57.785Z,23.80
2023-10-07T22:20:24.733Z,31.13
2023-10-07T22:22:52.375Z,26.67
2023-10-07T22:25:19.649Z,27.10
2023-10-07T22:27:47.796Z,28.00
2023-10-07T22:30:18.876Z,30.63
2023-10-07T22:32:47.090Z,31.30
2023-10-07T22:35:23.779Z,28.70
2023-10-07T22:37:59.040Z,31.63
2023-10-07T22:40:33.760Z,30.00
2023-10-07T22:43:00.750Z,31.63
2023-10-07T22:45:46.342Z,32.00
2023-10-07T22:48:21.383Z,33.87
2023-10-07T22:51:00.828Z,30.30
2023-10-07T22:53:30.507Z,33.03
2023-10-07T22:56:05.415Z,35.30
2023-10-07T22:58:39.408Z,31.37
2023-10-07T23:01:16.768Z,36.23
2023-10-07T23:03:51.378Z,32.10
2023-10-07T23:06:20.687Z,35.50
2023-10-07T23:09:00.872Z,31.97
2023-10-07T23:11:33.092Z,30.93
2023-10-07T23:14:18.934Z,31.70
2023-10-07T23:16:53.636Z,34.90
2023-10-07T23:19:23.053Z,29.90
2023-10-07T23:21:53.765Z,35.97
2023-10-07T23:24:39.549Z,29.53
2023-10-07T23:27:14.739Z,26.50
2023-10-07T23:29:50.320Z,25.53
2023-10-07T23:32:37.983Z,27.27
2023-10-07T23:35:23.169Z,28.77
2023-10-07T23:37:53.715Z,26.97
2023-10-07T23:40:32.580Z,31.63
2023-10-07T23:43:03.256Z,26.47
2023-10-07T23:45:31.804Z,27.47
2023-10-07T23:48:00.408Z,26.47
2023-10-07T23:50:36.414Z,28.67
2023-10-07T23:53:07.235Z,25.10
2023-10-07T23:55:34.533Z,28.93
2023-10-07T23:58:07.772Z,29.53
